createdAt,value
2024-04-18T00:01:05.719Z,5.60
2024-04-18T00:03:32.617Z,5.66
2024-04-18T00:05:59.313Z,5.93
2024-04-18T00:08:25.952Z,6.00
2024-04-18T00:10:55.871Z,6.54
2024-04-18T00:13:22.585Z,6.78
2024-04-18T00:15:49.283Z,6.99
2024-04-18T00:18:16.037Z,7.12
2024-04-18T00:20:45.560Z,7.57
2024-04-18T00:23:12.224Z,7.77
2024-04-18T00:25:38.782Z,7.63
2024-04-18T00:28:05.695Z,8.43
2024-04-18T00:30:32.462Z,8.24
2024-04-18T00:32:59.171Z,8.68
2024-04-18T00:35:25.814Z,8.32
2024-04-18T00:37:52.487Z,8.33
2024-04-18T00:40:19.289Z,8.94
2024-04-18T00:42:46.203Z,8.90
2024-04-18T00:45:12.846Z,8.56
2024-04-18T00:47:40.595Z,8.14
2024-04-18T00:50:11.191Z,7.92
2024-04-18T00:52:38.695Z,8.02
2024-04-18T00:55:08.939Z,7.78
2024-04-18T00:57:40.596Z,8.25
2024-04-18T01:00:08.331Z,8.08
2024-04-18T01:02:35.327Z,7.88
2024-04-18T01:05:03.543Z,8.09
2024-04-18T01:07:30.276Z,8.05
2024-04-18T01:09:57.043Z,8.42
2024-04-18T01:12:23.867Z,8.78
2024-04-18T01:14:50.447Z,8.55
2024-04-18T01:17:17.272Z,8.10
2024-04-18T01:19:44.104Z,8.42
2024-04-18T01:22:10.814Z,8.58
2024-04-18T01:24:37.521Z,8.62
2024-04-18T01:27:04.661Z,8.79
2024-04-18T01:29:31.268Z,8.91
2024-04-18T01:31:57.913Z,8.46
2024-04-18T01:34:24.704Z,9.28
2024-04-18T01:36:52.899Z,9.64
2024-04-18T01:39:20.350Z,9.18
2024-04-18T01:41:47.052Z,9.34
2024-04-18T01:44:13.820Z,9.72
2024-04-18T01:46:40.545Z,9.64
2024-04-18T01:49:07.227Z,9.03
2024-04-18T01:51:33.960Z,9.26
2024-04-18T01:54:00.689Z,9.20
2024-04-18T01:56:27.389Z,9.79
2024-04-18T01:58:54.029Z,9.82
2024-04-18T02:01:25.436Z,10.14
2024-04-18T02:03:52.183Z,10.29
2024-04-18T02:06:19.049Z,10.64
2024-04-18T02:08:45.783Z,10.53
2024-04-18T02:11:12.444Z,10.96
2024-04-18T02:13:39.278Z,10.62
2024-04-18T02:16:06.387Z,10.95
2024-04-18T02:18:33.146Z,11.02
2024-04-18T02:20:59.870Z,11.26
2024-04-18T02:23:27.527Z,11.41
2024-04-18T02:25:54.246Z,11.37
2024-04-18T02:28:21.221Z,11.19
2024-04-18T02:30:48.279Z,11.95
2024-04-18T02:33:17.771Z,12.50
2024-04-18T02:35:46.171Z,11.88
2024-04-18T02:38:12.790Z,11.54
2024-04-18T02:40:39.433Z,11.64
2024-04-18T02:43:06.033Z,12.29
2024-04-18T02:45:32.799Z,11.41
2024-04-18T02:47:59.535Z,12.17
2024-04-18T02:50:26.157Z,12.41
2024-04-18T02:52:52.890Z,12.14
2024-04-18T02:55:19.505Z,12.45
2024-04-18T02:57:46.296Z,12.82
2024-04-18T03:00:13.294Z,12.71
2024-04-18T03:02:40.003Z,12.10
2024-04-18T03:05:06.888Z,12.29
2024-04-18T03:07:33.578Z,11.67
2024-04-18T03:10:02.956Z,12.31
2024-04-18T03:12:30.390Z,12.02
2024-04-18T03:14:57.244Z,12.31
2024-04-18T03:17:23.879Z,12.20
2024-04-18T03:19:50.601Z,12.35
2024-04-18T03:22:17.659Z,12.73
2024-04-18T03:24:44.440Z,12.74
2024-04-18T03:27:11.175Z,13.01
2024-04-18T03:29:37.798Z,13.30
2024-04-18T03:32:05.335Z,13.65
2024-04-18T03:34:32.143Z,13.83
2024-04-18T03:36:58.972Z,13.90
2024-04-18T03:39:29.656Z,13.20
2024-04-18T03:41:56.286Z,14.50
2024-04-18T03:44:23.124Z,15.33
2024-04-18T03:46:49.894Z,14.26
2024-04-18T03:49:17.072Z,14.64
2024-04-18T03:51:43.791Z,15.10
2024-04-18T03:54:10.519Z,14.44
2024-04-18T03:56:37.224Z,15.06
2024-04-18T03:59:04.054Z,16.08
2024-04-18T04:01:31.003Z,15.99
2024-04-18T04:03:58.515Z,15.92
2024-04-18T04:06:25.489Z,15.25
2024-04-18T04:08:52.219Z,16.22
2024-04-18T04:11:19.596Z,16.59
2024-04-18T04:13:46.743Z,16.34
2024-04-18T04:16:13.699Z,17.06
2024-04-18T04:18:40.591Z,16.97
2024-04-18T04:21:08.901Z,16.89
2024-04-18T04:23:36.135Z,16.96
2024-04-18T04:26:03.109Z,17.24
2024-04-18T04:28:29.699Z,16.42
2024-04-18T04:30:56.403Z,16.53
2024-04-18T04:33:23.178Z,16.31
2024-04-18T04:35:49.829Z,15.76
2024-04-18T04:38:16.479Z,16.79
2024-04-18T04:40:43.189Z,16.63
2024-04-18T04:43:09.789Z,17.01
2024-04-18T04:45:36.438Z,16.69
2024-04-18T04:48:03.557Z,17.02
2024-04-18T04:50:30.352Z,16.68
2024-04-18T04:52:56.930Z,16.98
2024-04-18T04:55:23.623Z,17.13
2024-04-18T04:57:50.347Z,17.59
2024-04-18T05:00:17.259Z,16.83
2024-04-18T05:02:45.173Z,17.24
2024-04-18T05:05:13.280Z,17.74
2024-04-18T05:07:39.907Z,17.86
2024-04-18T05:10:07.540Z,17.81
2024-04-18T05:12:34.273Z,18.22
2024-04-18T05:15:01.287Z,17.62
2024-04-18T05:17:28.228Z,18.27
2024-04-18T05:19:54.854Z,17.94
2024-04-18T05:22:21.452Z,18.34
2024-04-18T05:24:48.159Z,19.23
2024-04-18T05:27:14.933Z,19.23
2024-04-18T05:30:00.430Z,17.77
2024-04-18T05:32:27.688Z,18.10
2024-04-18T05:34:54.476Z,18.31
2024-04-18T05:37:23.121Z,18.29
2024-04-18T05:39:50.479Z,18.14
2024-04-18T05:42:17.420Z,18.72
2024-04-18T05:44:44.692Z,19.16
2024-04-18T05:47:11.453Z,19.02
2024-04-18T05:49:38.136Z,18.40
2024-04-18T05:52:05.209Z,18.32
2024-04-18T05:54:33.114Z,17.98
2024-04-18T05:56:59.764Z,18.75
2024-04-18T05:59:26.408Z,18.39
2024-04-18T06:01:53.055Z,18.48
2024-04-18T06:04:19.849Z,17.95
2024-04-18T06:06:47.262Z,18.57
2024-04-18T06:09:14.023Z,17.67
2024-04-18T06:11:44.560Z,18.41
2024-04-18T06:14:11.397Z,18.80
2024-04-18T06:16:38.587Z,18.88
2024-04-18T06:19:05.333Z,18.61
2024-04-18T06:21:32.126Z,18.05
2024-04-18T06:23:58.900Z,17.72
2024-04-18T06:26:25.627Z,18.45
2024-04-18T06:28:52.561Z,17.75
2024-04-18T06:31:19.865Z,18.04
2024-04-18T06:33:47.309Z,17.78
2024-04-18T06:36:14.216Z,17.67
2024-04-18T06:38:40.901Z,17.31
2024-04-18T06:41:07.778Z,17.05
2024-04-18T06:43:34.943Z,16.46
2024-04-18T06:46:02.096Z,16.34
2024-04-18T06:48:30.339Z,16.26
2024-04-18T06:50:57.307Z,16.40
2024-04-18T06:53:24.031Z,16.23
2024-04-18T06:55:50.871Z,16.40
2024-04-18T06:58:17.870Z,15.40
2024-04-18T07:00:44.908Z,15.60
2024-04-18T07:03:13.924Z,16.03
2024-04-18T07:05:40.953Z,15.98
2024-04-18T07:08:07.825Z,15.23
2024-04-18T07:10:35.340Z,15.64
2024-04-18T07:13:02.266Z,15.79
2024-04-18T07:15:29.012Z,15.63
2024-04-18T07:17:58.042Z,15.44
2024-04-18T07:20:26.697Z,15.23
2024-04-18T07:22:54.891Z,15.30
2024-04-18T07:25:21.550Z,15.55
2024-04-18T07:27:49.642Z,15.31
2024-04-18T07:30:16.990Z,14.40
2024-04-18T07:32:44.526Z,14.77
2024-04-18T07:35:11.403Z,14.76
2024-04-18T07:37:38.123Z,14.70
2024-04-18T07:40:12.542Z,15.04
2024-04-18T07:42:39.985Z,14.52
2024-04-18T07:45:06.902Z,13.86
2024-04-18T07:47:34.069Z,14.17
2024-04-18T07:50:01.391Z,13.26
2024-04-18T07:52:28.164Z,12.69
2024-04-18T07:54:54.953Z,13.35
2024-04-18T07:57:22.186Z,13.15
2024-04-18T07:59:50.171Z,13.26
2024-04-18T08:02:19.249Z,12.50
2024-04-18T08:04:55.301Z,12.35
2024-04-18T08:07:29.091Z,12.17
2024-04-18T08:10:00.952Z,12.34
2024-04-18T08:12:34.741Z,11.43
2024-04-18T08:15:11.226Z,11.50
2024-04-18T08:17:41.557Z,10.81
2024-04-18T08:20:09.065Z,9.27
2024-04-18T08:22:35.786Z,9.04
2024-04-18T08:25:04.304Z,8.49
2024-04-18T08:27:33.369Z,7.16
2024-04-18T08:30:00.222Z,6.32
2024-04-18T08:32:26.909Z,5.87
2024-04-18T08:34:53.778Z,6.41
2024-04-18T08:37:21.300Z,7.72
2024-04-18T08:39:47.903Z,8.30
2024-04-18T08:42:23.708Z,8.15
2024-04-18T08:44:56.452Z,8.28
2024-04-18T08:47:28.087Z,7.94
2024-04-18T08:49:56.351Z,8.54
2024-04-18T08:52:23.390Z,8.51
2024-04-18T08:54:50.196Z,8.73
2024-04-18T08:57:22.943Z,8.72
2024-04-18T08:59:59.530Z,8.62
2024-04-18T09:02:27.567Z,8.49
2024-04-18T09:04:55.170Z,8.32
2024-04-18T09:07:22.202Z,7.53
2024-04-18T09:09:50.579Z,7.37
2024-04-18T09:12:17.545Z,7.26
2024-04-18T09:14:44.332Z,7.32
2024-04-18T09:17:15.391Z,7.01
2024-04-18T09:19:42.085Z,6.83
2024-04-18T09:22:08.767Z,6.74
2024-04-18T09:24:38.641Z,7.28
2024-04-18T09:27:05.516Z,7.18
2024-04-18T09:29:32.199Z,7.56
2024-04-18T09:32:01.673Z,7.33
2024-04-18T09:34:32.153Z,6.62
2024-04-18T09:37:06.248Z,6.64
2024-04-18T09:39:35.690Z,5.83
2024-04-18T09:42:31.921Z,6.30
2024-04-18T09:45:05.459Z,6.04
2024-04-18T09:47:34.065Z,5.90
2024-04-18T09:50:01.530Z,6.46
2024-04-18T09:52:30.297Z,6.69
2024-04-18T09:54:58.597Z,5.44
2024-04-18T09:57:28.600Z,6.32
2024-04-18T09:59:56.540Z,5.86
2024-04-18T10:02:24.806Z,4.94
2024-04-18T10:04:52.638Z,5.06
2024-04-18T10:07:25.061Z,5.21
2024-04-18T10:09:54.880Z,5.70
2024-04-18T10:12:23.120Z,5.67
2024-04-18T10:14:52.421Z,5.57
2024-04-18T10:17:32.408Z,5.25
2024-04-18T10:20:06.734Z,5.33
2024-04-18T10:22:45.573Z,5.37
2024-04-18T10:25:20.729Z,5.18
2024-04-18T10:27:47.578Z,5.40
2024-04-18T10:30:19.699Z,5.36
2024-04-18T10:32:49.968Z,5.18
2024-04-18T10:35:18.164Z,4.95
2024-04-18T10:37:51.918Z,5.15
2024-04-18T10:40:18.717Z,4.95
2024-04-18T10:42:45.372Z,4.85
2024-04-18T10:45:15.530Z,4.56
2024-04-18T10:47:45.007Z,4.33
2024-04-18T10:50:11.818Z,4.13
2024-04-18T10:52:38.460Z,4.31
2024-04-18T10:55:05.738Z,4.26
2024-04-18T10:57:32.713Z,4.45
2024-04-18T11:00:00.238Z,4.49
2024-04-18T11:02:29.198Z,4.86
2024-04-18T11:04:56.360Z,4.99
2024-04-18T11:07:23.027Z,4.58
2024-04-18T11:09:49.762Z,4.33
2024-04-18T11:12:17.342Z,4.50
2024-04-18T11:14:44.182Z,4.68
2024-04-18T11:17:11.197Z,4.80
2024-04-18T11:19:38.383Z,4.72
2024-04-18T11:22:05.543Z,4.70
2024-04-18T11:24:32.434Z,4.96
2024-04-18T11:27:02.769Z,5.08
2024-04-18T11:29:29.684Z,5.16
2024-04-18T11:32:12.023Z,5.34
2024-04-18T11:34:39.990Z,5.25
2024-04-18T11:37:08.841Z,5.41
2024-04-18T11:39:35.678Z,5.20
2024-04-18T11:42:02.574Z,4.93
2024-04-18T11:44:30.629Z,5.39
2024-04-18T11:46:57.642Z,5.15
2024-04-18T11:49:24.407Z,5.20
2024-04-18T11:51:51.178Z,5.13
2024-04-18T11:54:17.923Z,5.23
2024-04-18T11:56:44.786Z,4.87
2024-04-18T11:59:11.499Z,4.92
2024-04-18T12:01:38.128Z,5.66
2024-04-18T12:04:05.092Z,5.72
2024-04-18T12:06:32.204Z,5.79
2024-04-18T12:08:59.032Z,5.63
2024-04-18T12:11:25.866Z,5.76
2024-04-18T12:13:55.690Z,5.93
2024-04-18T12:16:23.712Z,5.87
2024-04-18T12:18:51.769Z,5.58
2024-04-18T12:21:18.425Z,5.11
2024-04-18T12:23:45.045Z,5.02
2024-04-18T12:26:13.572Z,4.87
2024-04-18T12:28:40.404Z,5.12
2024-04-18T12:31:07.135Z,4.79
2024-04-18T12:33:33.828Z,4.44
2024-04-18T12:36:00.796Z,4.38
2024-04-18T12:38:27.489Z,4.35
2024-04-18T12:40:54.102Z,4.40
2024-04-18T12:43:20.795Z,4.15
2024-04-18T12:45:47.952Z,4.28
2024-04-18T12:48:14.919Z,4.45
2024-04-18T12:50:41.906Z,4.67
2024-04-18T12:53:08.610Z,4.87
2024-04-18T12:55:36.878Z,4.32
2024-04-18T12:58:03.952Z,3.71
2024-04-18T13:00:30.876Z,3.62
2024-04-18T13:02:57.623Z,3.12
2024-04-18T13:05:24.815Z,3.20
2024-04-18T13:07:53.238Z,3.16
2024-04-18T13:10:20.535Z,3.57
2024-04-18T13:12:47.184Z,3.72
2024-04-18T13:15:14.614Z,4.09
2024-04-18T13:17:41.396Z,4.45
2024-04-18T13:20:08.539Z,4.39
2024-04-18T13:22:35.168Z,4.11
2024-04-18T13:25:01.822Z,4.34
2024-04-18T13:27:31.084Z,4.08
2024-04-18T13:29:58.892Z,3.88
2024-04-18T13:32:25.882Z,4.07
2024-04-18T13:34:54.431Z,3.78
2024-04-18T13:37:21.676Z,3.68
2024-04-18T13:39:52.198Z,3.95
2024-04-18T13:42:19.400Z,3.68
2024-04-18T13:44:46.253Z,3.57
2024-04-18T13:47:13.278Z,3.76
2024-04-18T13:49:40.041Z,3.87
2024-04-18T13:52:07.607Z,3.86
2024-04-18T13:54:35.936Z,3.91
2024-04-18T13:57:06.282Z,3.66
2024-04-18T13:59:33.471Z,3.81
2024-04-18T14:02:03.960Z,3.35
2024-04-18T14:04:31.441Z,3.48
2024-04-18T14:06:58.603Z,3.37
2024-04-18T14:09:34.961Z,3.36
2024-04-18T14:12:01.816Z,3.51
2024-04-18T14:14:29.792Z,3.14
2024-04-18T14:17:15.208Z,3.25
2024-04-18T14:19:41.872Z,3.47
2024-04-18T14:22:08.615Z,3.25
2024-04-18T14:24:36.690Z,3.24
2024-04-18T14:27:04.052Z,3.31
2024-04-18T14:29:31.079Z,3.28
2024-04-18T14:32:01.337Z,3.11
2024-04-18T14:34:28.917Z,2.89
2024-04-18T14:36:55.534Z,3.01
2024-04-18T14:39:22.161Z,3.15
2024-04-18T14:41:48.808Z,2.81
2024-04-18T14:44:15.437Z,2.64
2024-04-18T14:46:42.118Z,2.72
2024-04-18T14:49:12.148Z,2.46
2024-04-18T14:51:39.673Z,2.44
2024-04-18T14:54:07.337Z,2.29
2024-04-18T14:56:35.274Z,2.19
2024-04-18T14:59:02.509Z,1.97
2024-04-18T15:01:30.304Z,1.78
2024-04-18T15:03:57.204Z,1.69
2024-04-18T15:06:24.063Z,1.52
2024-04-18T15:08:50.770Z,1.70
2024-04-18T15:11:17.511Z,1.88
2024-04-18T15:13:44.131Z,1.74
2024-04-18T15:16:11.363Z,1.63
2024-04-18T15:18:38.828Z,1.60
2024-04-18T15:21:05.590Z,1.59
2024-04-18T15:23:32.890Z,1.69
2024-04-18T15:25:59.821Z,1.82
2024-04-18T15:28:26.989Z,2.01
2024-04-18T15:30:53.611Z,1.86
2024-04-18T15:33:20.903Z,1.90
2024-04-18T15:35:47.631Z,2.02
2024-04-18T15:38:14.901Z,2.53
2024-04-18T15:40:42.364Z,2.17
2024-04-18T15:43:09.035Z,2.13
2024-04-18T15:45:42.426Z,2.18
2024-04-18T15:48:09.276Z,2.26
2024-04-18T15:50:36.272Z,2.41
2024-04-18T15:53:02.865Z,2.29
2024-04-18T15:55:32.350Z,2.55
2024-04-18T15:57:59.334Z,2.82
2024-04-18T16:00:26.125Z,2.74
2024-04-18T16:02:55.396Z,2.45
2024-04-18T16:05:25.244Z,2.43
2024-04-18T16:07:52.248Z,2.36
2024-04-18T16:10:19.398Z,2.21
2024-04-18T16:12:46.919Z,2.36
2024-04-18T16:15:14.841Z,2.26
2024-04-18T16:17:44.835Z,2.40
2024-04-18T16:20:13.600Z,2.41
2024-04-18T16:22:40.664Z,2.14
2024-04-18T16:25:07.503Z,1.84
2024-04-18T16:27:35.180Z,2.02
2024-04-18T16:30:01.922Z,2.06
2024-04-18T16:32:29.029Z,1.86
2024-04-18T16:34:55.832Z,2.03
2024-04-18T16:37:24.783Z,2.02
2024-04-18T16:39:51.763Z,1.70
2024-04-18T16:42:18.501Z,1.57
2024-04-18T16:44:45.181Z,1.63
2024-04-18T16:47:11.855Z,1.44
2024-04-18T16:49:41.309Z,1.35
2024-04-18T16:52:10.520Z,1.49
2024-04-18T16:54:38.062Z,1.38
2024-04-18T16:57:05.142Z,1.37
2024-04-18T16:59:31.813Z,1.26
2024-04-18T17:01:58.499Z,1.50
2024-04-18T17:04:25.583Z,1.33
2024-04-18T17:06:52.408Z,1.34
2024-04-18T17:09:19.327Z,1.26
2024-04-18T17:11:47.009Z,1.21
2024-04-18T17:14:16.248Z,1.09
2024-04-18T17:16:42.840Z,1.10
2024-04-18T17:19:09.537Z,1.13
2024-04-18T17:21:36.790Z,1.38
2024-04-18T17:24:03.922Z,1.11
2024-04-18T17:26:30.781Z,1.28
2024-04-18T17:28:57.708Z,1.20
2024-04-18T17:31:24.613Z,1.15
2024-04-18T17:33:51.258Z,1.11
2024-04-18T17:36:18.464Z,1.14
2024-04-18T17:38:47.265Z,1.16
2024-04-18T17:41:14.091Z,1.10
2024-04-18T17:43:41.196Z,1.21
2024-04-18T17:46:08.081Z,1.25
2024-04-18T17:48:35.049Z,1.25
2024-04-18T17:51:01.688Z,1.31
2024-04-18T17:53:28.914Z,1.16
2024-04-18T17:55:55.736Z,1.30
2024-04-18T17:58:22.723Z,1.23
2024-04-18T18:00:49.840Z,1.25
2024-04-18T18:03:17.391Z,1.22
2024-04-18T18:05:45.337Z,1.31
2024-04-18T18:08:12.022Z,1.42
2024-04-18T18:10:38.732Z,1.31
2024-04-18T18:13:05.399Z,1.41
2024-04-18T18:15:32.080Z,1.41
2024-04-18T18:17:59.560Z,1.35
2024-04-18T18:20:26.835Z,1.27
2024-04-18T18:22:53.651Z,1.43
2024-04-18T18:25:20.283Z,1.40
2024-04-18T18:27:46.935Z,1.43
2024-04-18T18:30:14.888Z,1.37
2024-04-18T18:32:42.238Z,1.59
2024-04-18T18:35:09.702Z,1.40
2024-04-18T18:37:36.625Z,1.60
2024-04-18T18:40:05.469Z,1.54
2024-04-18T18:42:32.198Z,1.35
2024-04-18T18:44:58.900Z,1.45
2024-04-18T18:47:25.716Z,1.38
2024-04-18T18:49:52.496Z,1.45
2024-04-18T18:52:20.483Z,1.47
2024-04-18T18:54:47.700Z,1.36
2024-04-18T18:57:14.577Z,1.20
2024-04-18T18:59:45.428Z,1.37
2024-04-18T19:02:12.728Z,1.34
2024-04-18T19:04:40.564Z,1.38
2024-04-18T19:07:07.250Z,1.39
2024-04-18T19:09:34.023Z,1.37
2024-04-18T19:12:00.818Z,1.36
2024-04-18T19:14:28.270Z,1.37
2024-04-18T19:16:55.402Z,1.22
2024-04-18T19:19:25.368Z,1.54
2024-04-18T19:21:52.727Z,1.51
2024-04-18T19:24:19.677Z,1.56
2024-04-18T19:26:47.764Z,1.62
2024-04-18T19:29:20.678Z,1.41
2024-04-18T19:31:53.855Z,1.55
2024-04-18T19:34:20.560Z,1.39
2024-04-18T19:36:47.888Z,1.86
2024-04-18T19:39:15.764Z,1.99
2024-04-18T19:41:42.601Z,2.40
2024-04-18T19:44:09.535Z,2.61
2024-04-18T19:46:36.243Z,2.54
2024-04-18T19:49:03.799Z,2.88
2024-04-18T19:51:31.467Z,2.65
2024-04-18T19:53:58.166Z,2.80
2024-04-18T19:56:24.883Z,2.81
2024-04-18T19:58:51.486Z,2.74
2024-04-18T20:01:18.196Z,2.55
2024-04-18T20:03:45.004Z,2.52
2024-04-18T20:06:11.712Z,2.40
2024-04-18T20:08:38.446Z,2.80
2024-04-18T20:11:05.110Z,2.61
2024-04-18T20:13:31.753Z,3.13
2024-04-18T20:15:58.375Z,3.36
2024-04-18T20:18:25.097Z,3.32
2024-04-18T20:20:51.769Z,2.63
2024-04-18T20:23:18.914Z,2.45
2024-04-18T20:25:45.633Z,2.24
2024-04-18T20:28:13.135Z,2.44
2024-04-18T20:30:39.895Z,1.88
2024-04-18T20:33:06.927Z,2.13
2024-04-18T20:35:33.716Z,5.55
2024-04-18T20:38:00.411Z,4.33
2024-04-18T20:40:27.073Z,3.63
2024-04-18T20:42:53.839Z,2.99
2024-04-18T20:45:20.457Z,2.36
2024-04-18T20:47:47.287Z,2.29
2024-04-18T20:50:14.133Z,2.02
2024-04-18T20:52:40.806Z,2.50
2024-04-18T20:55:07.920Z,2.80
2024-04-18T20:57:34.727Z,3.17
2024-04-18T21:00:01.435Z,3.57
2024-04-18T21:02:28.352Z,3.53
2024-04-18T21:04:55.173Z,3.61
2024-04-18T21:07:23.461Z,4.26
2024-04-18T21:09:50.064Z,4.22
2024-04-18T21:12:17.328Z,5.12
2024-04-18T21:14:44.036Z,5.73
2024-04-18T21:17:10.698Z,5.98
2024-04-18T21:19:37.401Z,4.33
2024-04-18T21:22:05.452Z,3.76
2024-04-18T21:24:32.260Z,3.85
2024-04-18T21:26:58.931Z,4.32
2024-04-18T21:29:25.551Z,4.21
2024-04-18T21:31:52.137Z,3.36
2024-04-18T21:34:18.777Z,3.51
2024-04-18T21:36:45.554Z,3.21
2024-04-18T21:39:13.182Z,2.81
2024-04-18T21:41:41.260Z,2.70
2024-04-18T21:44:07.880Z,2.41
2024-04-18T21:46:34.481Z,2.73
2024-04-18T21:49:01.260Z,2.39
2024-04-18T21:51:28.594Z,2.74
2024-04-18T21:53:55.426Z,2.39
2024-04-18T21:56:22.062Z,2.78
2024-04-18T21:58:53.226Z,2.85
2024-04-18T22:01:19.916Z,2.40
2024-04-18T22:03:46.620Z,2.31
2024-04-18T22:06:13.278Z,2.26
2024-04-18T22:08:39.869Z,2.20
2024-04-18T22:11:06.545Z,2.13
2024-04-18T22:13:33.298Z,2.22
2024-04-18T22:15:59.913Z,2.12
2024-04-18T22:18:26.875Z,2.02
2024-04-18T22:20:56.310Z,2.21
2024-04-18T22:23:23.325Z,2.11
2024-04-18T22:25:50.031Z,2.01
2024-04-18T22:28:16.767Z,2.07
2024-04-18T22:30:44.743Z,2.13
2024-04-18T22:33:11.568Z,2.23
2024-04-18T22:35:39.889Z,2.22
2024-04-18T22:38:06.547Z,1.85
2024-04-18T22:40:33.186Z,2.07
2024-04-18T22:42:59.996Z,2.04
2024-04-18T22:45:26.864Z,2.32
2024-04-18T22:47:53.560Z,2.29
2024-04-18T22:50:20.204Z,2.74
2024-04-18T22:52:46.830Z,2.35
2024-04-18T22:55:14.502Z,2.26
2024-04-18T22:57:41.290Z,2.35
2024-04-18T23:00:09.790Z,2.46
2024-04-18T23:02:36.507Z,2.30
2024-04-18T23:05:04.400Z,2.35
2024-04-18T23:07:30.977Z,2.70
2024-04-18T23:09:58.780Z,2.48
2024-04-18T23:12:25.396Z,2.42
2024-04-18T23:14:52.029Z,2.89
2024-04-18T23:17:18.697Z,3.01
2024-04-18T23:19:45.388Z,2.96
2024-04-18T23:22:12.019Z,2.97
2024-04-18T23:24:39.637Z,3.08
2024-04-18T23:27:06.303Z,2.88
2024-04-18T23:29:33.041Z,3.03
2024-04-18T23:31:59.979Z,2.74
2024-04-18T23:34:26.937Z,3.30
2024-04-18T23:36:53.574Z,3.45
2024-04-18T23:39:20.249Z,3.30
2024-04-18T23:41:46.878Z,3.07
2024-04-18T23:44:13.492Z,2.94
2024-04-18T23:46:40.246Z,3.11
2024-04-18T23:49:06.932Z,3.29
2024-04-18T23:51:33.636Z,3.07
2024-04-18T23:54:00.246Z,3.08
2024-04-18T23:56:26.887Z,3.24
2024-04-18T23:58:53.978Z,3.23
